Time;durP1;ratioP1;P1;durP2;ratioP2;P2;SDS_P1;SDS_P2;PMS_P1;PMS_P2;Temp;Humidity;BMP_temperature;BMP_pressure;BME280_temperature;BME280_humidity;BME280_pressure;Samples;Min_cycle;Max_cycle;Signal;HPM_P1;HPM_P2
2022/09/27 00:00:34;;;;;;;8.02;0.82;;;12.30;99.90;;;;;;5053109;28;20051;-68
2022/09/27 00:03:01;;;;;;;4.70;0.73;;;12.30;99.90;;;;;;5053100;28;20025;-68
2022/09/27 00:05:27;;;;;;;7.13;0.60;;;12.20;99.90;;;;;;5053417;28;20071;-68
2022/09/27 00:07:52;;;;;;;10.05;1.45;;;12.20;99.90;;;;;;5053163;28;20053;-68
2022/09/27 00:10:18;;;;;;;5.40;0.60;;;12.20;99.90;;;;;;5052933;28;20032;-68
2022/09/27 00:12:44;;;;;;;3.63;0.52;;;12.20;99.90;;;;;;5053212;28;20108;-68
2022/09/27 00:15:10;;;;;;;6.53;0.73;;;12.20;99.90;;;;;;5052857;28;20053;-68
2022/09/27 00:17:37;;;;;;;6.88;0.60;;;12.20;99.90;;;;;;5052970;28;20495;-68
2022/09/27 00:20:05;;;;;;;4.18;0.38;;;12.10;99.90;;;;;;5053198;28;20025;-68
2022/09/27 00:22:31;;;;;;;5.15;0.63;;;12.10;99.90;;;;;;5053191;28;20039;-68
2022/09/27 00:24:57;;;;;;;7.28;0.60;;;12.10;99.90;;;;;;5053209;28;20021;-68
2022/09/27 00:27:25;;;;;;;6.70;0.77;;;12.10;99.90;;;;;;5053009;28;20385;-68
2022/09/27 00:29:51;;;;;;;4.60;0.57;;;12.10;99.90;;;;;;5053053;28;20424;-68
2022/09/27 00:32:17;;;;;;;10.05;0.93;;;12.10;99.90;;;;;;5056806;28;20044;-68
2022/09/27 00:34:43;;;;;;;4.60;0.40;;;12.10;99.90;;;;;;5057169;28;20029;-68
2022/09/27 00:37:10;;;;;;;5.47;0.50;;;12.10;99.90;;;;;;5056889;28;20083;-69
2022/09/27 00:39:38;;;;;;;5.70;0.60;;;12.10;99.90;;;;;;5056812;28;20480;-68
2022/09/27 00:42:05;;;;;;;6.18;0.60;;;12.10;99.90;;;;;;5056799;28;20029;-68
2022/09/27 00:44:32;;;;;;;3.08;0.47;;;12.10;99.90;;;;;;5057043;28;20430;-68
2022/09/27 00:47:02;;;;;;;5.72;0.40;;;12.10;99.90;;;;;;5056637;28;20036;-68
2022/09/27 00:49:46;;;;;;;6.22;0.60;;;12.10;99.90;;;;;;5056774;28;20037;-69
2022/09/27 00:52:24;;;;;;;5.28;0.50;;;12.10;99.90;;;;;;5056718;28;20037;-68
2022/09/27 00:54:56;;;;;;;5.18;0.65;;;12.10;99.90;;;;;;5056721;28;20029;-68
2022/09/27 00:57:22;;;;;;;4.18;0.20;;;12.10;99.90;;;;;;5056822;28;20439;-68
2022/09/27 01:00:01;;;;;;;5.53;0.40;;;12.10;99.90;;;;;;5056199;28;20531;-68
2022/09/27 01:02:27;;;;;;;6.05;0.30;;;12.10;99.90;;;;;;5056468;28;20060;-68
2022/09/27 01:04:54;;;;;;;2.22;0.40;;;12.10;99.90;;;;;;5056680;28;20025;-68
2022/09/27 01:07:20;;;;;;;5.38;0.40;;;12.10;99.90;;;;;;5056184;28;20151;-68
2022/09/27 01:09:46;;;;;;;2.30;0.30;;;12.20;99.90;;;;;;5056229;28;20048;-68
2022/09/27 01:12:36;;;;;;;3.90;0.45;;;12.10;99.90;;;;;;5056201;28;20460;-68
2022/09/27 01:15:23;;;;;;;3.28;0.20;;;12.00;99.90;;;;;;5056601;28;20017;-68
2022/09/27 01:18:09;;;;;;;5.03;0.40;;;12.00;99.90;;;;;;5055808;28;20025;-68
2022/09/27 01:21:22;;;;;;;3.97;0.30;;;12.00;99.90;;;;;;5056136;28;20035;-68
2022/09/27 01:24:19;;;;;;;4.87;0.40;;;12.00;99.90;;;;;;5053865;28;20037;-68
2022/09/27 01:27:08;;;;;;;2.97;0.45;;;12.00;99.90;;;;;;5055630;28;20779;-68
2022/09/27 01:30:08;;;;;;;6.25;0.70;;;12.00;99.90;;;;;;5055709;28;20041;-68
2022/09/27 01:32:48;;;;;;;4.97;0.52;;;11.90;99.90;;;;;;5055787;28;20025;-68
2022/09/27 01:35:24;;;;;;;2.97;0.30;;;11.90;99.90;;;;;;5055961;28;20027;-68
2022/09/27 01:38:04;;;;;;;1.83;0.20;;;11.90;99.90;;;;;;5056078;28;20025;-68
2022/09/27 01:40:48;;;;;;;6.38;0.10;;;11.80;99.90;;;;;;5055551;28;20515;-68
2022/09/27 01:43:30;;;;;;;3.80;0.55;;;11.80;99.90;;;;;;5055460;28;20025;-69
2022/09/27 01:46:02;;;;;;;4.13;0.50;;;11.80;99.90;;;;;;5056079;28;20055;-68
2022/09/27 01:48:34;;;;;;;6.75;0.30;;;11.90;99.90;;;;;;5055795;28;20025;-69
2022/09/27 01:51:14;;;;;;;3.80;0.43;;;11.90;99.90;;;;;;5055819;28;20052;-69
2022/09/27 01:53:43;;;;;;;2.13;0.20;;;11.90;99.90;;;;;;5055470;28;20408;-69
2022/09/27 01:56:15;;;;;;;5.22;0.35;;;11.90;99.90;;;;;;5055447;28;20029;-68
2022/09/27 01:58:45;;;;;;;1.58;0.20;;;11.90;99.90;;;;;;5055448;28;20025;-69
2022/09/27 02:01:12;;;;;;;5.32;0.32;;;11.90;99.90;;;;;;5055639;28;20021;-69
2022/09/27 02:03:47;;;;;;;3.95;0.20;;;11.90;99.90;;;;;;5055307;28;20384;-68
2022/09/27 02:06:27;;;;;;;4.20;0.35;;;11.90;99.90;;;;;;5055181;28;20036;-69
2022/09/27 02:08:59;;;;;;;5.60;0.20;;;11.90;99.90;;;;;;5055498;28;20066;-69
2022/09/27 02:11:26;;;;;;;3.70;0.30;;;11.90;99.90;;;;;;5055110;28;20103;-69
2022/09/27 02:13:57;;;;;;;2.47;0.20;;;11.80;99.70;;;;;;5055161;28;20163;-68
2022/09/27 02:16:47;;;;;;;5.45;0.93;;;11.80;99.70;;;;;;5055003;28;20059;-69
2022/09/27 02:19:31;;;;;;;4.45;0.15;;;11.90;99.70;;;;;;5055160;28;20056;-68
2022/09/27 02:22:15;;;;;;;3.58;0.10;;;11.80;99.60;;;;;;5055303;28;20021;-69
2022/09/27 02:24:53;;;;;;;2.60;0.20;;;11.80;99.50;;;;;;5054868;28;20595;-68
2022/09/27 02:27:27;;;;;;;2.28;0.38;;;11.80;99.50;;;;;;5055057;28;20036;-68
2022/09/27 02:30:04;;;;;;;3.22;0.38;;;11.80;99.50;;;;;;5055078;28;20044;-69
2022/09/27 02:32:31;;;;;;;1.60;0.10;;;11.80;99.50;;;;;;5054606;28;20025;-68
2022/09/27 02:34:59;;;;;;;4.38;0.45;;;11.80;99.40;;;;;;5054888;28;20029;-68
2022/09/27 02:37:25;;;;;;;2.20;0.20;;;11.80;99.40;;;;;;5055017;28;20368;-68
2022/09/27 02:39:51;;;;;;;0.82;0.20;;;11.80;99.40;;;;;;5054589;28;20025;-68
2022/09/27 02:42:19;;;;;;;3.95;0.15;;;11.70;99.40;;;;;;5054546;28;20029;-68
2022/09/27 02:44:45;;;;;;;3.33;0.45;;;11.80;99.40;;;;;;5054474;28;20025;-68
2022/09/27 02:47:27;;;;;;;4.18;0.20;;;11.80;99.30;;;;;;5054192;28;20028;-69
2022/09/27 02:50:15;;;;;;;2.67;0.17;;;11.80;99.30;;;;;;5054323;28;20040;-68
2022/09/27 02:53:20;;;;;;;3.83;0.30;;;11.70;99.10;;;;;;5054327;28;20055;-68
2022/09/27 02:55:52;;;;;;;1.77;0.15;;;11.70;99.20;;;;;;5054284;28;20384;-69
2022/09/27 02:58:29;;;;;;;3.75;0.40;;;11.60;99.20;;;;;;5054307;28;20021;-69
2022/09/27 03:01:23;;;;;;;6.63;0.20;;;11.60;99.20;;;;;;5054167;28;20021;-68
2022/09/27 03:04:22;;;;;;;3.95;0.30;;;11.60;99.30;;;;;;5054401;28;20021;-68
2022/09/27 03:06:49;;;;;;;4.65;0.20;;;11.60;99.30;;;;;;5054442;28;20100;-69
2022/09/27 03:09:27;;;;;;;1.27;0.10;;;11.50;99.40;;;;;;5053799;28;20025;-69
2022/09/27 03:11:52;;;;;;;3.92;0.20;;;11.50;99.40;;;;;;5054070;28;20049;-69
2022/09/27 03:14:18;;;;;;;3.25;0.30;;;11.40;99.50;;;;;;5054078;28;20100;-69
2022/09/27 03:16:43;;;;;;;1.38;0.20;;;11.40;99.50;;;;;;5053872;28;20146;-68
2022/09/27 03:19:09;;;;;;;2.53;0.20;;;11.40;99.50;;;;;;5053798;28;20017;-68
2022/09/27 03:21:34;;;;;;;3.03;0.20;;;11.30;99.60;;;;;;5054069;28;20369;-68
2022/09/27 03:24:01;;;;;;;5.40;0.20;;;11.30;99.90;;;;;;5053939;28;20021;-68
2022/09/27 03:26:27;;;;;;;5.07;0.30;;;11.20;99.60;;;;;;5053759;28;20052;-69
2022/09/27 03:28:52;;;;;;;3.20;0.20;;;11.30;99.80;;;;;;5053484;28;20566;-69
2022/09/27 03:31:18;;;;;;;4.78;0.20;;;11.30;99.80;;;;;;5053596;28;20095;-69
2022/09/27 03:33:44;;;;;;;2.60;0.15;;;11.20;99.90;;;;;;5053866;28;20112;-69
2022/09/27 03:36:10;;;;;;;1.77;0.13;;;11.20;99.90;;;;;;5053838;28;20123;-69
2022/09/27 03:38:36;;;;;;;12.95;5.35;;;11.30;99.90;;;;;;5053597;28;20025;-69
2022/09/27 03:41:02;;;;;;;7.78;1.83;;;11.20;99.90;;;;;;5053378;28;20495;-69
2022/09/27 03:43:28;;;;;;;6.55;1.08;;;11.20;99.90;;;;;;5053739;28;20041;-69
2022/09/27 03:45:53;;;;;;;5.60;0.63;;;11.20;99.90;;;;;;5053436;28;20021;-69
2022/09/27 03:48:19;;;;;;;4.32;0.55;;;11.20;99.90;;;;;;5053634;28;20456;-69
2022/09/27 03:50:45;;;;;;;6.72;0.57;;;11.30;99.90;;;;;;5053274;28;20041;-69
2022/09/27 03:53:10;;;;;;;4.63;0.70;;;11.20;99.90;;;;;;5053460;28;20461;-69
2022/09/27 03:55:36;;;;;;;7.32;0.60;;;11.20;99.90;;;;;;5053501;28;20021;-69
2022/09/27 03:58:02;;;;;;;5.63;0.55;;;11.20;99.90;;;;;;5053311;28;20358;-69
2022/09/27 04:00:30;;;;;;;3.30;0.65;;;11.20;99.90;;;;;;5053446;28;20453;-69
2022/09/27 04:02:56;;;;;;;7.60;0.55;;;11.20;99.90;;;;;;5053410;28;20021;-69
2022/09/27 04:05:25;;;;;;;8.02;0.40;;;11.20;99.90;;;;;;5053351;28;20512;-69
2022/09/27 04:07:51;;;;;;;3.38;0.40;;;11.20;99.90;;;;;;5052950;28;20472;-69
2022/09/27 04:10:16;;;;;;;6.03;0.52;;;11.20;99.90;;;;;;5053336;28;20040;-69
2022/09/27 04:12:43;;;;;;;6.22;0.45;;;11.20;99.90;;;;;;5053321;28;20025;-69
2022/09/27 04:15:09;;;;;;;4.70;0.40;;;11.10;99.90;;;;;;5053284;28;20021;-69
2022/09/27 04:17:35;;;;;;;6.55;0.45;;;11.10;99.90;;;;;;5052733;28;20036;-69
2022/09/27 04:20:02;;;;;;;7.75;0.82;;;11.10;99.90;;;;;;5053295;28;20025;-69
2022/09/27 04:22:28;;;;;;;6.68;0.75;;;11.10;99.90;;;;;;5052953;28;20067;-69
2022/09/27 04:24:53;;;;;;;7.88;0.68;;;11.10;99.90;;;;;;5052904;28;20098;-69
2022/09/27 04:27:21;;;;;;;7.72;0.73;;;11.10;99.90;;;;;;5053052;28;20395;-69
2022/09/27 04:29:47;;;;;;;7.75;1.13;;;11.10;99.90;;;;;;5052717;28;20404;-69
2022/09/27 04:32:13;;;;;;;7.38;0.55;;;11.10;99.90;;;;;;5052967;28;20389;-69
2022/09/27 04:37:24;;;;;;;12.63;0.90;;;11.10;99.90;;;;;;5053048;28;20074;-69
2022/09/27 04:39:50;;;;;;;7.82;0.68;;;11.10;99.90;;;;;;5052883;28;20033;-69
2022/09/27 04:42:16;;;;;;;4.68;0.60;;;11.10;99.90;;;;;;5052977;28;20468;-69
2022/09/27 04:44:42;;;;;;;6.43;0.70;;;11.20;99.90;;;;;;5052726;28;20539;-69
2022/09/27 04:47:08;;;;;;;7.18;0.93;;;11.20;99.90;;;;;;5052862;28;20028;-69
2022/09/27 04:49:34;;;;;;;13.30;0.82;;;11.20;99.90;;;;;;5052707;28;20040;-69
2022/09/27 04:52:00;;;;;;;12.38;1.30;;;11.20;99.90;;;;;;5052723;28;20025;-70
2022/09/27 04:54:25;;;;;;;9.57;1.20;;;11.10;99.90;;;;;;5052676;28;20029;-70
2022/09/27 04:56:51;;;;;;;4.72;0.60;;;11.20;99.90;;;;;;5052453;28;20111;-70
2022/09/27 04:59:16;;;;;;;6.28;1.05;;;11.20;99.90;;;;;;5052586;28;20032;-70
2022/09/27 05:01:42;;;;;;;9.68;1.08;;;11.20;99.90;;;;;;5052822;28;20115;-72
2022/09/27 05:04:08;;;;;;;7.50;1.20;;;11.20;99.90;;;;;;5052689;28;20377;-70
2022/09/27 05:06:33;;;;;;;5.32;0.45;;;11.20;99.90;;;;;;5052511;28;20021;-70
2022/09/27 05:08:59;;;;;;;8.52;1.40;;;11.20;99.90;;;;;;5052399;28;20106;-72
2022/09/27 05:11:25;;;;;;;5.30;1.05;;;11.20;99.90;;;;;;5052020;28;20037;-72
2022/09/27 05:13:50;;;;;;;10.40;1.83;;;11.20;99.90;;;;;;5052532;28;20129;-72
2022/09/27 05:16:17;;;;;;;8.98;0.85;;;11.20;99.90;;;;;;5053115;28;20064;-75
2022/09/27 05:18:42;;;;;;;5.82;0.73;;;11.20;99.90;;;;;;5056372;28;20056;-75
2022/09/27 05:21:08;;;;;;;8.77;0.90;;;11.20;99.80;;;;;;5055088;28;20106;-75
2022/09/27 05:23:34;;;;;;;8.68;0.60;;;11.30;99.70;;;;;;5055898;28;20025;-75
2022/09/27 05:26:06;;;;;;;6.00;0.95;;;11.30;99.80;;;;;;5055806;28;20017;-75
2022/09/27 05:28:34;;;;;;;10.88;0.98;;;11.20;99.60;;;;;;5055617;28;20106;-75
2022/09/27 05:31:00;;;;;;;8.25;0.68;;;11.20;99.60;;;;;;5056048;28;20116;-75
2022/09/27 05:33:26;;;;;;;5.18;0.60;;;11.20;99.50;;;;;;5056138;28;20025;-75
2022/09/27 05:35:53;;;;;;;3.65;0.40;;;11.20;99.50;;;;;;5056119;28;20025;-75
2022/09/27 05:38:19;;;;;;;6.82;0.50;;;11.20;99.50;;;;;;5055730;28;20109;-74
2022/09/27 05:40:46;;;;;;;5.30;0.50;;;11.20;99.20;;;;;;5055793;28;20437;-75
2022/09/27 05:43:12;;;;;;;4.20;0.65;;;11.20;99.10;;;;;;5054434;28;20472;-75
2022/09/27 05:45:38;;;;;;;3.60;0.47;;;11.20;99.00;;;;;;5055784;28;20074;-75
2022/09/27 05:48:04;;;;;;;3.25;0.30;;;11.10;98.90;;;;;;5055849;28;20017;-75
2022/09/27 05:50:30;;;;;;;5.88;0.68;;;11.10;98.90;;;;;;5055097;28;20495;-75
2022/09/27 05:52:56;;;;;;;5.13;0.30;;;11.00;98.90;;;;;;5055422;28;20029;-75
2022/09/27 05:55:22;;;;;;;7.57;0.45;;;11.00;99.10;;;;;;5055639;28;20032;-74
2022/09/27 05:58:03;;;;;;;6.00;0.73;;;11.00;99.10;;;;;;5055523;28;20021;-74
2022/09/27 06:00:29;;;;;;;2.80;0.32;;;11.00;99.30;;;;;;5055465;28;20040;-75
2022/09/27 06:02:57;;;;;;;4.65;0.93;;;11.00;99.40;;;;;;5055470;28;20396;-74
2022/09/27 06:05:24;;;;;;;9.00;0.50;;;10.90;99.60;;;;;;5055147;28;20025;-74
2022/09/27 06:07:51;;;;;;;4.45;0.75;;;10.90;99.70;;;;;;5055315;28;20104;-74
2022/09/27 06:10:18;;;;;;;6.70;1.45;;;10.90;99.80;;;;;;5055250;28;20036;-75
2022/09/27 06:12:44;;;;;;;6.07;0.38;;;11.00;99.80;;;;;;5054777;28;20032;-74
2022/09/27 06:15:09;;;;;;;4.72;0.45;;;10.90;99.90;;;;;;5055220;28;20033;-74
2022/09/27 06:17:35;;;;;;;3.17;0.47;;;10.90;99.90;;;;;;5054869;28;20553;-74
2022/09/27 06:20:01;;;;;;;8.55;0.80;;;10.90;99.90;;;;;;5054806;28;20098;-75
2022/09/27 06:22:27;;;;;;;1.55;0.40;;;10.80;99.90;;;;;;5054756;28;20397;-75
2022/09/27 06:24:52;;;;;;;3.22;0.47;;;10.80;99.90;;;;;;5055134;28;20103;-74
2022/09/27 06:27:18;;;;;;;3.95;0.32;;;10.90;99.90;;;;;;5054233;28;20036;-74
2022/09/27 06:29:43;;;;;;;2.60;0.30;;;10.90;99.90;;;;;;5053755;28;20053;-74
2022/09/27 06:32:10;;;;;;;3.13;0.30;;;10.90;99.90;;;;;;5054874;28;20021;-74
2022/09/27 06:34:35;;;;;;;4.45;0.40;;;10.80;99.90;;;;;;5054541;28;20036;-74
2022/09/27 06:37:01;;;;;;;5.22;0.70;;;10.90;99.90;;;;;;5054364;28;20025;-74
2022/09/27 06:39:27;;;;;;;4.03;0.45;;;10.90;99.90;;;;;;5054456;28;20025;-74
2022/09/27 06:41:56;;;;;;;3.25;0.30;;;11.00;99.90;;;;;;5054776;28;20048;-74
2022/09/27 06:44:23;;;;;;;5.10;0.52;;;11.00;99.90;;;;;;5054550;28;20029;-74
2022/09/27 06:46:49;;;;;;;7.30;0.40;;;11.00;99.90;;;;;;5054238;28;20056;-74
2022/09/27 06:49:15;;;;;;;4.82;0.40;;;11.00;99.90;;;;;;5054442;28;20029;-74
2022/09/27 06:51:43;;;;;;;4.28;0.30;;;11.00;99.90;;;;;;5054308;28;20058;-74
2022/09/27 06:54:09;;;;;;;5.50;0.60;;;11.00;99.90;;;;;;5054291;28;20017;-74
2022/09/27 06:56:34;;;;;;;6.80;0.65;;;11.00;99.90;;;;;;5054223;28;20023;-74
2022/09/27 07:01:44;;;;;;;4.47;0.68;;;11.10;99.90;;;;;;5053921;28;20028;-74
2022/09/27 07:04:11;;;;;;;5.60;0.95;;;11.10;99.90;;;;;;5054093;28;20024;-74
2022/09/27 07:06:37;;;;;;;3.05;0.40;;;11.10;99.90;;;;;;5053867;28;20075;-74
2022/09/27 07:09:05;;;;;;;2.45;0.40;;;11.20;99.90;;;;;;5054197;28;20029;-74
2022/09/27 07:11:35;;;;;;;5.07;0.60;;;11.30;99.90;;;;;;5053796;28;20037;-74
2022/09/27 07:14:02;;;;;;;5.10;0.40;;;11.20;99.90;;;;;;5053893;28;20021;-74
2022/09/27 07:16:28;;;;;;;4.35;0.30;;;11.30;99.90;;;;;;5053873;28;20090;-74
2022/09/27 07:18:53;;;;;;;9.18;0.47;;;11.30;99.90;;;;;;5053986;28;20453;-74
2022/09/27 07:21:19;;;;;;;7.10;0.50;;;11.30;99.90;;;;;;5053939;28;20025;-75
2022/09/27 07:23:45;;;;;;;2.90;0.40;;;11.30;99.90;;;;;;5053497;28;20025;-75
2022/09/27 07:26:11;;;;;;;5.80;0.77;;;11.20;99.90;;;;;;5054050;28;20020;-74
2022/09/27 07:28:39;;;;;;;5.15;0.55;;;11.20;99.90;;;;;;5053670;28;20044;-75
2022/09/27 07:31:04;;;;;;;3.00;0.40;;;11.20;99.90;;;;;;5053918;28;20048;-74
2022/09/27 07:33:31;;;;;;;4.15;0.68;;;11.20;99.90;;;;;;5053713;28;20021;-75
2022/09/27 07:35:56;;;;;;;3.13;0.45;;;11.30;99.90;;;;;;5053392;28;20025;-75
2022/09/27 07:38:22;;;;;;;3.42;0.55;;;11.30;99.90;;;;;;5053638;28;20534;-75
2022/09/27 07:40:48;;;;;;;6.80;0.50;;;11.30;99.90;;;;;;5053396;28;20104;-75
2022/09/27 07:43:13;;;;;;;3.53;0.40;;;11.40;99.90;;;;;;5053337;28;20506;-75
2022/09/27 07:45:39;;;;;;;4.47;0.70;;;11.30;99.90;;;;;;5053252;28;20090;-74
2022/09/27 07:48:09;;;;;;;2.60;0.40;;;11.40;99.90;;;;;;5053280;28;20377;-75
2022/09/27 07:50:37;;;;;;;3.92;0.40;;;11.40;99.90;;;;;;5053361;28;20044;-75
2022/09/27 07:53:03;;;;;;;3.10;0.50;;;11.50;99.90;;;;;;5053303;28;20028;-75
2022/09/27 07:55:29;;;;;;;3.58;0.45;;;11.40;99.90;;;;;;5053016;28;20481;-75
2022/09/27 07:58:09;;;;;;;3.03;0.43;;;11.50;99.90;;;;;;5053214;28;20048;-75
2022/09/27 08:00:36;;;;;;;3.00;0.35;;;11.50;99.90;;;;;;5053071;28;20483;-75
2022/09/27 08:03:14;;;;;;;4.95;0.30;;;11.60;99.90;;;;;;5053423;28;20060;-75
2022/09/27 08:05:44;;;;;;;1.60;0.32;;;11.60;99.90;;;;;;5053166;28;20029;-74
2022/09/27 08:08:10;;;;;;;7.18;2.13;;;11.60;99.90;;;;;;5052773;28;20444;-75
2022/09/27 08:10:36;;;;;;;4.97;0.68;;;11.60;99.90;;;;;;5052713;28;20045;-75
2022/09/27 08:13:03;;;;;;;5.32;0.30;;;11.60;99.90;;;;;;5053347;28;20017;-75
2022/09/27 08:15:35;;;;;;;3.88;0.43;;;11.60;99.90;;;;;;5053059;28;20025;-75
2022/09/27 08:18:01;;;;;;;3.00;0.57;;;11.70;99.90;;;;;;5053014;28;20049;-75
2022/09/27 08:20:27;;;;;;;2.60;0.43;;;11.70;99.90;;;;;;5052672;28;20065;-75
2022/09/27 08:22:52;;;;;;;1.70;0.43;;;11.70;99.90;;;;;;5052745;28;20515;-75
2022/09/27 08:25:18;;;;;;;3.70;0.40;;;11.70;99.90;;;;;;5053195;28;20357;-75
2022/09/27 08:27:53;;;;;;;4.65;0.50;;;11.70;99.90;;;;;;5052740;28;20017;-75
2022/09/27 08:30:18;;;;;;;2.28;0.50;;;11.70;99.90;;;;;;5053129;28;20045;-75
2022/09/27 08:32:44;;;;;;;4.07;0.47;;;11.70;99.90;;;;;;5052902;28;20025;-74
2022/09/27 08:35:10;;;;;;;2.85;0.30;;;11.70;99.90;;;;;;5052890;28;20025;-74
2022/09/27 08:37:36;;;;;;;4.50;0.85;;;11.60;99.90;;;;;;5052705;28;20092;-74
2022/09/27 08:40:03;;;;;;;4.90;0.50;;;11.60;99.90;;;;;;5053141;28;20129;-75
2022/09/27 08:42:57;;;;;;;5.65;0.50;;;11.60;99.90;;;;;;5053127;28;20032;-75
2022/09/27 08:45:49;;;;;;;3.65;0.38;;;11.60;99.90;;;;;;5050678;28;20395;-74
2022/09/27 08:48:16;;;;;;;3.55;0.57;;;11.60;99.90;;;;;;5052532;28;20568;-74
2022/09/27 08:50:44;;;;;;;2.03;0.52;;;11.60;99.90;;;;;;5052819;28;20041;-74
2022/09/27 08:53:13;;;;;;;3.78;0.60;;;11.60;99.90;;;;;;5056205;28;20388;-74
2022/09/27 08:55:41;;;;;;;2.83;0.68;;;11.60;99.90;;;;;;5056697;28;20025;-74
2022/09/27 08:58:25;;;;;;;4.43;0.73;;;11.60;99.90;;;;;;5056740;28;20078;-75
2022/09/27 09:00:54;;;;;;;4.68;0.77;;;11.60;99.90;;;;;;5056555;28;20029;-75
2022/09/27 09:03:26;;;;;;;3.92;0.70;;;11.60;99.90;;;;;;5056445;28;20102;-75
2022/09/27 09:06:22;;;;;;;2.88;0.70;;;11.70;99.90;;;;;;5056539;28;20446;-75
2022/09/27 09:09:14;;;;;;;5.53;0.70;;;11.80;99.90;;;;;;5056433;28;20033;-74
2022/09/27 09:15:17;;;;;;;4.38;0.65;;;11.90;99.90;;;;;;5056148;28;20075;-75
2022/09/27 09:17:52;;;;;;;2.15;0.40;;;11.90;99.90;;;;;;5056104;28;20021;-75
2022/09/27 09:20:38;;;;;;;1.42;0.30;;;11.90;99.90;;;;;;5056366;28;20025;-75
2022/09/27 09:23:29;;;;;;;1.92;0.25;;;11.90;99.90;;;;;;5056110;28;20056;-75
2022/09/27 09:26:24;;;;;;;0.98;0.13;;;12.00;99.90;;;;;;5056178;28;20044;-75
2022/09/27 09:29:08;;;;;;;2.65;0.43;;;11.90;99.90;;;;;;5051626;28;20040;-75
2022/09/27 09:31:46;;;;;;;2.08;0.40;;;11.90;99.90;;;;;;5055853;28;20036;-76
2022/09/27 09:34:22;;;;;;;3.20;0.50;;;11.90;99.90;;;;;;5056106;28;20100;-75
2022/09/27 09:37:09;;;;;;;2.55;0.50;;;11.90;99.90;;;;;;5055929;28;20485;-75
2022/09/27 09:39:55;;;;;;;3.42;0.50;;;11.90;99.90;;;;;;5055827;28;20025;-75
2022/09/27 09:42:28;;;;;;;3.45;0.40;;;11.80;99.90;;;;;;5055971;28;20075;-75
2022/09/27 09:45:19;;;;;;;2.25;0.63;;;11.80;99.90;;;;;;5055840;28;20041;-75
2022/09/27 09:48:11;;;;;;;3.33;0.60;;;11.70;99.90;;;;;;5055719;28;20040;-75
2022/09/27 09:50:44;;;;;;;3.40;0.75;;;11.70;99.90;;;;;;5054897;28;20033;-74
2022/09/27 09:53:21;;;;;;;2.28;0.47;;;11.70;99.90;;;;;;5055530;28;20029;-74
2022/09/27 09:56:20;;;;;;;3.13;0.50;;;11.70;99.90;;;;;;5055650;28;20029;-75
2022/09/27 09:58:56;;;;;;;3.55;0.52;;;11.70;99.90;;;;;;5041017;28;20044;-75
2022/09/27 10:01:35;;;;;;;3.97;0.70;;;11.60;99.90;;;;;;5055729;28;20028;-74
2022/09/27 10:04:01;;;;;;;2.30;0.40;;;11.70;99.90;;;;;;5055298;28;20086;-75
2022/09/27 10:06:29;;;;;;;2.88;0.40;;;11.70;99.90;;;;;;5055612;28;20029;-75
2022/09/27 10:08:55;;;;;;;3.42;0.50;;;11.80;99.90;;;;;;5055269;28;20028;-75
2022/09/27 10:11:41;;;;;;;4.63;0.28;;;11.70;99.90;;;;;;5055060;28;20040;-75
2022/09/27 10:14:12;;;;;;;1.58;0.30;;;11.80;99.90;;;;;;5055386;28;20036;-75
2022/09/27 10:16:42;;;;;;;2.20;0.20;;;11.80;99.90;;;;;;5055037;28;20100;-75
2022/09/27 10:19:08;;;;;;;3.70;0.75;;;11.80;99.90;;;;;;5055053;28;20071;-75
2022/09/27 10:21:39;;;;;;;3.67;0.20;;;11.80;99.90;;;;;;5054574;28;20499;-75
2022/09/27 10:24:09;;;;;;;2.25;0.35;;;11.80;99.90;;;;;;5055008;28;20060;-75
2022/09/27 10:26:37;;;;;;;3.63;0.15;;;11.70;99.90;;;;;;5055072;28;20075;-75
2022/09/27 10:29:20;;;;;;;3.80;0.25;;;11.80;99.90;;;;;;5054407;28;20068;-76
2022/09/27 10:31:49;;;;;;;3.80;0.38;;;11.80;99.90;;;;;;5054722;28;20059;-75
2022/09/27 10:34:33;;;;;;;1.65;0.10;;;11.80;99.90;;;;;;5054522;28;20021;-74
2022/09/27 10:37:16;;;;;;;4.60;0.35;;;11.70;99.90;;;;;;5054395;28;20043;-74
2022/09/27 10:39:46;;;;;;;2.67;0.20;;;11.70;99.90;;;;;;5054519;28;20504;-74
2022/09/27 10:42:33;;;;;;;2.50;0.30;;;11.70;99.90;;;;;;5054166;28;20060;-74
2022/09/27 10:45:21;;;;;;;3.05;0.28;;;11.60;99.90;;;;;;5054338;28;20048;-74
2022/09/27 10:47:47;;;;;;;3.15;0.28;;;11.70;99.90;;;;;;5054661;28;20054;-74
2022/09/27 10:50:24;;;;;;;2.78;0.20;;;11.70;99.90;;;;;;5054214;28;20047;-74
2022/09/27 10:53:02;;;;;;;2.72;0.20;;;11.70;99.90;;;;;;5054430;28;20025;-74
2022/09/27 10:55:31;;;;;;;2.70;0.20;;;11.70;99.90;;;;;;5054567;28;20059;-74
2022/09/27 10:57:57;;;;;;;2.53;0.30;;;11.70;99.90;;;;;;5054507;28;20080;-74
2022/09/27 11:00:33;;;;;;;3.47;0.38;;;11.70;99.90;;;;;;5054274;28;20488;-74
2022/09/27 11:03:03;;;;;;;2.72;0.20;;;11.70;99.90;;;;;;5054119;28;20476;-75
2022/09/27 11:05:32;;;;;;;2.40;0.20;;;11.80;99.90;;;;;;5053884;28;20064;-75
2022/09/27 11:08:02;;;;;;;1.55;0.20;;;11.80;99.70;;;;;;5053848;28;20033;-75
2022/09/27 11:10:33;;;;;;;2.42;0.17;;;11.70;99.50;;;;;;5053959;28;20047;-75
2022/09/27 11:13:13;;;;;;;2.85;0.13;;;11.70;99.60;;;;;;5054263;28;20028;-75
2022/09/27 11:15:51;;;;;;;3.75;0.45;;;11.70;99.40;;;;;;5053121;28;20056;-75
2022/09/27 11:18:48;;;;;;;2.45;0.20;;;11.70;99.40;;;;;;5053930;28;20155;-75
2022/09/27 11:21:33;;;;;;;2.75;0.30;;;11.80;99.40;;;;;;5053091;28;20025;-75
2022/09/27 11:24:47;;;;;;;1.70;0.20;;;11.80;99.30;;;;;;5053187;28;20524;-75
2022/09/27 11:27:44;;;;;;;5.75;1.48;;;11.80;99.20;;;;;;5051975;28;20059;-74
2022/09/27 11:30:16;;;;;;;1.38;0.20;;;11.80;99.20;;;;;;5053687;28;20365;-75
2022/09/27 11:33:04;;;;;;;2.10;0.10;;;11.80;99.80;;;;;;5053384;28;20039;-75
2022/09/27 11:35:34;;;;;;;4.95;0.20;;;11.90;99.60;;;;;;5053248;28;20464;-75
2022/09/27 11:38:24;;;;;;;2.58;0.63;;;11.90;99.80;;;;;;5053804;28;20052;-76
2022/09/27 11:41:20;;;;;;;1.95;0.38;;;12.00;99.90;;;;;;5053277;28;20060;-75
2022/09/27 11:44:24;;;;;;;3.17;0.13;;;12.10;99.90;;;;;;5053458;28;20476;-75
2022/09/27 11:47:15;;;;;;;0.82;0.00;;;12.20;99.90;;;;;;5053787;28;20108;-75
2022/09/27 11:50:00;;;;;;;2.28;0.13;;;12.40;99.90;;;;;;5052972;28;20515;-75
2022/09/27 11:52:57;;;;;;;1.75;0.10;;;12.40;99.40;;;;;;5053570;28;20052;-75
2022/09/27 11:55:51;;;;;;;1.58;0.10;;;12.30;98.80;;;;;;5053014;28;20111;-75
2022/09/27 11:58:50;;;;;;;2.33;0.20;;;12.40;98.90;;;;;;5053455;28;20024;-75
2022/09/27 12:01:38;;;;;;;1.50;0.10;;;12.30;98.60;;;;;;5053486;28;20037;-75
2022/09/27 12:04:17;;;;;;;1.83;0.30;;;12.30;98.80;;;;;;5052874;28;20024;-74
2022/09/27 12:07:03;;;;;;;0.82;0.13;;;12.30;98.90;;;;;;5052904;28;20074;-75
2022/09/27 12:09:34;;;;;;;0.90;0.10;;;12.30;98.80;;;;;;5053302;28;20021;-75
2022/09/27 12:12:16;;;;;;;0.80;0.10;;;12.30;98.20;;;;;;5052986;28;20074;-75
2022/09/27 12:15:11;;;;;;;1.27;0.10;;;12.20;97.80;;;;;;5053052;28;20096;-75
2022/09/27 12:17:41;;;;;;;1.17;0.10;;;12.20;98.00;;;;;;5052853;28;20025;-75
2022/09/27 12:20:16;;;;;;;1.25;0.30;;;12.20;98.20;;;;;;5052479;28;20024;-75
2022/09/27 12:22:56;;;;;;;0.80;0.10;;;12.20;98.00;;;;;;5052172;28;20064;-74
2022/09/27 12:25:26;;;;;;;0.52;0.10;;;12.10;98.10;;;;;;5052133;28;20021;-74
2022/09/27 12:28:09;;;;;;;2.25;0.30;;;12.10;98.30;;;;;;5055581;28;20069;-78
2022/09/27 12:30:37;;;;;;;;;;;12.10;98.60;;;;;;5057470;28;20067;-75
2022/09/27 12:33:29;;;;;;;1.90;0.20;;;12.10;98.70;;;;;;5056851;28;20268;-75
2022/09/27 12:36:00;;;;;;;0.32;0.00;;;12.10;98.60;;;;;;5056841;28;20074;-75
2022/09/27 12:38:39;;;;;;;1.13;0.08;;;12.10;98.00;;;;;;5056847;28;20021;-75
2022/09/27 12:41:08;;;;;;;1.73;0.10;;;12.10;98.20;;;;;;5056753;28;20556;-74
2022/09/27 12:43:34;;;;;;;0.30;0.00;;;12.10;98.30;;;;;;5057152;28;20120;-75
2022/09/27 12:46:21;;;;;;;1.60;0.10;;;12.20;98.50;;;;;;5056408;28;20103;-75
2022/09/27 12:48:53;;;;;;;1.27;0.10;;;12.20;98.50;;;;;;5056835;28;20109;-75
2022/09/27 12:51:21;;;;;;;2.15;0.40;;;12.30;98.60;;;;;;5056812;28;20029;-74
2022/09/27 12:54:08;;;;;;;1.17;0.20;;;12.30;98.40;;;;;;5056840;28;20381;-75
2022/09/27 12:57:05;;;;;;;1.95;0.10;;;12.30;98.10;;;;;;5056492;28;20027;-75
2022/09/27 13:00:08;;;;;;;0.50;0.00;;;12.30;97.90;;;;;;5056598;28;20392;-75
2022/09/27 13:03:05;;;;;;;2.35;0.10;;;12.30;98.10;;;;;;5056774;28;20029;-75
2022/09/27 13:05:49;;;;;;;1.20;0.10;;;12.20;98.00;;;;;;5056693;28;20029;-75
2022/09/27 13:08:40;;;;;;;3.35;0.17;;;12.10;97.70;;;;;;5055971;28;20095;-75
2022/09/27 13:11:39;;;;;;;0.57;0.10;;;12.10;98.00;;;;;;5056386;28;20072;-75
2022/09/27 13:14:09;;;;;;;2.10;0.30;;;11.90;97.50;;;;;;5056232;28;20024;-75
2022/09/27 13:16:45;;;;;;;0.30;0.00;;;11.90;97.70;;;;;;5055968;28;20431;-75
2022/09/27 13:19:41;;;;;;;1.45;0.25;;;11.80;97.90;;;;;;5056265;28;20017;-75
2022/09/27 13:22:27;;;;;;;1.65;0.20;;;11.70;98.00;;;;;;5056074;28;20021;-75
2022/09/27 13:24:54;;;;;;;2.38;0.13;;;11.70;98.30;;;;;;5051774;28;20087;-75
2022/09/27 13:27:28;;;;;;;1.00;0.20;;;11.70;98.60;;;;;;5055742;28;20063;-75